createdAt,value
2022-08-08T00:00:55.169Z,100041.75
2022-08-08T00:03:31.285Z,100034.78
2022-08-08T00:06:40.632Z,100031.59
2022-08-08T00:09:36.618Z,100039.22
2022-08-08T00:13:04.436Z,100030.94
2022-08-08T00:16:07.409Z,100036.38
2022-08-08T00:19:03.022Z,100030.47
2022-08-08T00:21:56.653Z,100026.91
2022-08-08T00:24:45.716Z,100022.19
2022-08-08T00:27:35.791Z,100019.00
2022-08-08T00:30:24.202Z,100008.41
2022-08-08T00:33:18.807Z,100004.06
2022-08-08T00:36:17.397Z,100009.19
2022-08-08T00:41:08.077Z,100002.69
2022-08-08T00:42:50.823Z,100000.88
2022-08-08T00:45:56.161Z,100009.81
2022-08-08T00:49:04.631Z,100012.81
2022-08-08T00:52:38.872Z,100009.34
2022-08-08T00:55:54.662Z,100006.97
2022-08-08T00:59:44.552Z,100014.56
2022-08-08T01:03:55.671Z,100007.59
2022-08-08T01:06:27.680Z,99995.88
2022-08-08T01:09:35.043Z,100002.72
2022-08-08T01:12:52.078Z,100002.72
2022-08-08T01:16:02.388Z,99997.12
2022-08-08T01:19:02.685Z,100004.09
2022-08-08T01:22:13.443Z,99996.94
2022-08-08T01:25:42.980Z,99989.38
2022-08-08T01:28:51.519Z,100008.88
2022-08-08T01:32:06.763Z,100001.66
2022-08-08T01:35:11.813Z,100000.78
2022-08-08T01:38:47.827Z,99990.94
2022-08-08T01:41:50.423Z,99985.25
2022-08-08T01:44:59.000Z,99981.91
2022-08-08T01:48:23.525Z,99985.34
2022-08-08T01:51:31.398Z,99970.44
2022-08-08T01:55:25.814Z,99980.09
2022-08-08T01:58:39.803Z,99971.81
2022-08-08T02:02:00.361Z,99975.47
2022-08-08T02:05:23.205Z,99975.91
2022-08-08T02:08:22.374Z,99987.63
2022-08-08T02:11:59.187Z,99984.34
2022-08-08T02:14:59.380Z,99988.59
2022-08-08T02:17:54.227Z,99995.84
2022-08-08T02:21:21.885Z,99990.75
2022-08-08T02:24:19.789Z,100000.63
2022-08-08T02:27:19.114Z,100006.16
2022-08-08T02:30:20.622Z,99999.78
2022-08-08T02:34:00.170Z,100004.22
2022-08-08T02:36:50.826Z,100017.03
2022-08-08T02:39:59.856Z,100007.81
2022-08-08T02:44:42.796Z,100014.75
2022-08-08T02:46:27.789Z,100023.59
2022-08-08T02:49:51.091Z,100011.66
2022-08-08T02:53:00.103Z,100008.59
2022-08-08T02:56:18.621Z,100009.47
2022-08-08T02:59:57.630Z,100011.53
2022-08-08T03:03:46.148Z,100021.41
2022-08-08T03:06:52.003Z,100027.63
2022-08-08T03:09:51.013Z,100034.72
2022-08-08T03:13:33.969Z,100024.81
2022-08-08T03:16:35.224Z,100017.03
2022-08-08T03:19:50.827Z,100029.16
2022-08-08T03:22:48.095Z,100037.09
2022-08-08T03:25:42.517Z,100032.34
2022-08-08T03:28:37.570Z,100033.94
2022-08-08T03:32:06.111Z,100022.75
2022-08-08T03:34:49.754Z,100023.81
2022-08-08T03:38:54.322Z,100027.81
2022-08-08T03:40:54.642Z,100028.31
2022-08-08T03:43:41.591Z,100025.22
2022-08-08T03:46:32.533Z,100016.84
2022-08-08T03:50:00.464Z,100024.25
2022-08-08T03:52:31.720Z,100029.47
2022-08-08T03:55:57.641Z,100038.41
2022-08-08T03:58:34.998Z,100027.37
2022-08-08T04:02:13.283Z,100021.59
2022-08-08T04:04:45.402Z,100024.25
2022-08-08T04:07:40.134Z,100033.00
2022-08-08T04:10:32.231Z,100032.84
2022-08-08T04:13:23.342Z,100032.84
2022-08-08T04:16:09.875Z,100045.72
2022-08-08T04:18:59.164Z,100044.41
2022-08-08T04:21:46.717Z,100040.97
2022-08-08T04:24:35.650Z,100045.62
2022-08-08T04:28:02.759Z,100047.13
2022-08-08T04:30:29.221Z,100061.47
2022-08-08T04:33:23.848Z,100055.88
2022-08-08T04:36:13.585Z,100049.66
2022-08-08T04:39:21.333Z,100066.25
2022-08-08T04:42:07.606Z,100055.56
2022-08-08T04:44:58.463Z,100055.28
2022-08-08T04:47:47.127Z,100054.78
2022-08-08T04:50:38.325Z,100052.53
2022-08-08T04:54:36.503Z,100062.38
2022-08-08T04:56:32.546Z,100059.81
2022-08-08T04:59:26.981Z,100060.19
2022-08-08T05:02:31.193Z,100070.38
2022-08-08T05:05:44.327Z,100081.34
2022-08-08T05:08:26.970Z,100073.94
2022-08-08T05:11:24.635Z,100082.47
2022-08-08T05:14:14.927Z,100071.47
2022-08-08T05:17:08.655Z,100077.28
2022-08-08T05:20:11.096Z,100077.13
2022-08-08T05:23:00.890Z,100071.69
2022-08-08T05:25:49.596Z,100071.44
2022-08-08T05:28:56.796Z,100081.31
2022-08-08T05:32:03.972Z,100075.41
2022-08-08T05:34:50.319Z,100090.22
2022-08-08T05:37:53.491Z,100087.47
2022-08-08T05:40:53.270Z,100091.72
2022-08-08T05:44:03.998Z,100084.09
2022-08-08T05:46:52.960Z,100093.41
2022-08-08T05:49:41.482Z,100090.69
2022-08-08T05:52:43.938Z,100088.78
2022-08-08T05:56:10.228Z,100089.50
2022-08-08T05:58:57.982Z,100092.34
2022-08-08T06:01:57.996Z,100087.31
2022-08-08T06:04:54.404Z,100075.41
2022-08-08T06:07:43.743Z,100067.22
2022-08-08T06:10:34.814Z,100071.50
2022-08-08T06:13:35.449Z,100078.75
2022-08-08T06:16:27.397Z,100084.84
2022-08-08T06:19:18.957Z,100093.34
2022-08-08T06:25:18.346Z,100079.03
2022-08-08T06:28:29.243Z,100092.91
2022-08-08T06:31:19.625Z,100092.66
2022-08-08T06:34:27.298Z,100083.00
2022-08-08T06:37:24.995Z,100081.31
2022-08-08T06:40:16.935Z,100084.78
2022-08-08T06:43:10.634Z,100083.00
2022-08-08T06:45:59.304Z,100096.75
2022-08-08T06:48:46.217Z,100094.31
2022-08-08T06:51:52.706Z,100104.00
2022-08-08T06:54:42.586Z,100100.97
2022-08-08T06:57:44.037Z,100101.22
2022-08-08T07:00:40.866Z,100101.47
2022-08-08T07:04:36.857Z,100105.34
2022-08-08T07:07:10.410Z,100100.06
2022-08-08T07:10:08.103Z,100104.28
2022-08-08T07:13:00.013Z,100093.84
2022-08-08T07:16:04.809Z,100089.16
2022-08-08T07:19:14.980Z,100088.16
2022-08-08T07:22:11.654Z,100090.56
2022-08-08T07:25:01.784Z,100093.53
2022-08-08T07:28:02.320Z,100096.47
2022-08-08T07:30:55.677Z,100106.22
2022-08-08T07:33:58.962Z,100101.81
2022-08-08T07:36:50.586Z,100109.88
2022-08-08T07:39:56.095Z,100096.69
2022-08-08T07:42:47.319Z,100108.81
2022-08-08T07:46:05.016Z,100108.16
2022-08-08T07:48:42.064Z,100108.16
2022-08-08T07:51:44.759Z,100107.09
2022-08-08T07:55:04.384Z,100120.34
2022-08-08T07:58:00.489Z,100125.63
2022-08-08T08:00:53.166Z,100126.00
2022-08-08T08:04:04.358Z,100126.66
2022-08-08T08:06:53.054Z,100125.50
2022-08-08T08:09:41.787Z,100124.22
2022-08-08T08:12:35.529Z,100123.47
2022-08-08T08:15:32.029Z,100124.00
2022-08-08T08:18:32.283Z,100121.56
2022-08-08T08:21:20.739Z,100129.19
2022-08-08T08:24:32.285Z,100122.81
2022-08-08T08:27:20.098Z,100117.56
2022-08-08T08:30:07.340Z,100121.19
2022-08-08T08:32:54.716Z,100129.59
2022-08-08T08:36:19.240Z,100124.34
2022-08-08T08:38:50.214Z,100119.59
2022-08-08T08:41:37.331Z,100128.37
2022-08-08T08:44:25.396Z,100136.31
2022-08-08T08:47:18.814Z,100149.66
2022-08-08T08:50:10.717Z,100143.44
2022-08-08T08:53:27.266Z,100145.13
2022-08-08T08:56:25.097Z,100139.97
2022-08-08T08:59:17.205Z,100140.75
2022-08-08T09:02:17.200Z,100140.41
2022-08-08T09:05:06.102Z,100136.25
2022-08-08T09:08:13.102Z,100143.94
2022-08-08T09:11:03.471Z,100147.38
2022-08-08T09:13:51.348Z,100144.06
2022-08-08T09:16:40.960Z,100146.44
2022-08-08T09:22:01.168Z,100150.81
2022-08-08T09:22:39.524Z,100149.50
2022-08-08T09:25:36.200Z,100156.06
2022-08-08T09:28:38.784Z,100150.03
2022-08-08T09:32:00.979Z,100159.16
2022-08-08T09:34:50.960Z,100146.38
2022-08-08T09:38:01.090Z,100151.38
2022-08-08T09:40:52.560Z,100150.69
2022-08-08T09:44:05.671Z,100148.72
2022-08-08T09:46:57.212Z,100139.66
2022-08-08T09:49:51.427Z,100136.44
2022-08-08T09:52:56.595Z,100134.72
2022-08-08T09:56:04.548Z,100125.37
2022-08-08T09:59:20.130Z,100127.97
2022-08-08T10:02:23.409Z,100127.38
2022-08-08T10:05:22.845Z,100128.22
2022-08-08T10:08:11.500Z,100121.19
2022-08-08T10:10:58.702Z,100127.19
2022-08-08T10:14:02.124Z,100125.22
2022-08-08T10:16:54.884Z,100141.16
2022-08-08T10:19:57.171Z,100137.78
2022-08-08T10:23:00.086Z,100150.78
2022-08-08T10:25:56.141Z,100150.06
2022-08-08T10:29:05.388Z,100145.25
2022-08-08T10:32:15.793Z,100130.41
2022-08-08T10:35:11.749Z,100135.09
2022-08-08T10:38:08.525Z,100120.41
2022-08-08T10:40:55.760Z,100120.38
2022-08-08T10:43:50.546Z,100119.50
2022-08-08T10:46:37.103Z,100114.72
2022-08-08T10:50:00.754Z,100115.47
2022-08-08T10:52:37.278Z,100124.38
2022-08-08T10:55:40.984Z,100140.66
2022-08-08T10:58:29.653Z,100146.97
2022-08-08T11:01:16.108Z,100153.75
2022-08-08T11:04:08.225Z,100151.72
2022-08-08T11:07:00.730Z,100157.84
2022-08-08T11:09:47.263Z,100151.97
2022-08-08T11:12:38.401Z,100143.88
2022-08-08T11:15:30.596Z,100161.88
2022-08-08T11:18:18.413Z,100155.84
2022-08-08T11:21:08.886Z,100143.41
2022-08-08T11:24:01.889Z,100142.75
2022-08-08T11:26:56.339Z,100142.63
2022-08-08T11:29:58.209Z,100134.53
2022-08-08T11:32:53.811Z,100128.72
2022-08-08T11:35:42.548Z,100136.91
2022-08-08T11:38:37.127Z,100123.50
2022-08-08T11:41:32.306Z,100131.13
2022-08-08T11:44:28.987Z,100145.41
2022-08-08T11:47:17.322Z,100165.44
2022-08-08T11:50:13.013Z,100152.84
2022-08-08T11:52:59.807Z,100154.22
2022-08-08T11:55:50.829Z,100159.53
2022-08-08T11:58:37.778Z,100162.50
2022-08-08T12:01:35.402Z,100165.50
2022-08-08T12:04:22.477Z,100155.97
2022-08-08T12:07:14.409Z,100176.97
2022-08-08T12:10:12.000Z,100180.09
2022-08-08T12:13:05.051Z,100175.47
2022-08-08T12:15:51.451Z,100171.94
2022-08-08T12:18:44.445Z,100165.13
2022-08-08T12:22:00.707Z,100153.84
2022-08-08T12:24:51.139Z,100154.44
2022-08-08T12:27:45.534Z,100154.22
2022-08-08T12:30:33.856Z,100165.47
2022-08-08T12:33:37.770Z,100162.34
2022-08-08T12:36:46.398Z,100156.19
2022-08-08T12:40:00.410Z,100161.44
2022-08-08T12:42:47.382Z,100169.09
2022-08-08T12:45:59.275Z,100171.16
2022-08-08T12:49:20.766Z,100178.72
2022-08-08T12:52:04.151Z,100168.41
2022-08-08T12:55:13.615Z,100171.22
2022-08-08T12:58:09.583Z,100188.47
2022-08-08T13:01:10.965Z,100177.19
2022-08-08T13:03:58.133Z,100178.28
2022-08-08T13:06:53.752Z,100172.94
2022-08-08T13:10:04.213Z,100176.91
2022-08-08T13:12:51.875Z,100183.69
2022-08-08T13:15:38.933Z,100175.75
2022-08-08T13:18:27.596Z,100188.41
2022-08-08T13:21:16.296Z,100184.00
2022-08-08T13:24:07.500Z,100174.00
2022-08-08T13:27:01.454Z,100165.87
2022-08-08T13:30:02.599Z,100168.34
2022-08-08T13:32:55.221Z,100174.44
2022-08-08T13:35:43.934Z,100164.06
2022-08-08T13:38:38.088Z,100153.16
2022-08-08T13:41:26.195Z,100156.88
2022-08-08T13:44:27.955Z,100148.22
2022-08-08T13:47:20.184Z,100146.09
2022-08-08T13:50:36.754Z,100131.00
2022-08-08T13:53:31.446Z,100134.75
2022-08-08T13:56:44.895Z,100131.31
2022-08-08T13:59:48.769Z,100135.59
2022-08-08T14:02:35.948Z,100130.03
2022-08-08T14:05:36.057Z,100132.41
2022-08-08T14:08:46.096Z,100120.03
2022-08-08T14:11:34.064Z,100116.88
2022-08-08T14:14:26.296Z,100122.34
2022-08-08T14:17:36.470Z,100119.47
2022-08-08T14:20:57.901Z,100124.53
2022-08-08T14:24:04.421Z,100125.81
2022-08-08T14:26:33.344Z,100130.41
2022-08-08T14:29:27.029Z,100127.28
2022-08-08T14:32:27.654Z,100128.31
2022-08-08T14:35:19.223Z,100136.19
2022-08-08T14:38:33.469Z,100132.53
2022-08-08T14:41:45.498Z,100144.72
2022-08-08T14:44:33.638Z,100136.53
2022-08-08T14:47:22.100Z,100127.53
2022-08-08T14:50:15.050Z,100144.81
2022-08-08T14:53:14.095Z,100123.44
2022-08-08T14:56:01.891Z,100128.63
2022-08-08T14:58:50.839Z,100132.31
2022-08-08T15:01:41.196Z,100134.75
2022-08-08T15:04:28.001Z,100138.00
2022-08-08T15:07:24.233Z,100145.37
2022-08-08T15:10:22.844Z,100137.53
2022-08-08T15:13:15.305Z,100144.38
2022-08-08T15:16:03.713Z,100145.41
2022-08-08T15:18:51.798Z,100145.22
2022-08-08T15:21:43.052Z,100145.28
2022-08-08T15:24:31.766Z,100140.16
2022-08-08T15:28:04.377Z,100137.09
2022-08-08T15:30:24.428Z,100142.91
2022-08-08T15:33:20.835Z,100151.22
2022-08-08T15:36:19.192Z,100151.66
2022-08-08T15:39:14.808Z,100150.84
2022-08-08T15:42:01.433Z,100152.25
2022-08-08T15:44:48.009Z,100146.00
2022-08-08T15:47:34.246Z,100145.94
2022-08-08T15:50:21.051Z,100158.09
2022-08-08T15:53:08.803Z,100154.31
2022-08-08T15:55:57.383Z,100150.16
2022-08-08T15:58:48.275Z,100145.47
2022-08-08T16:01:40.468Z,100148.22
2022-08-08T16:04:42.453Z,100137.84
2022-08-08T16:07:39.176Z,100140.72
2022-08-08T16:13:02.572Z,100140.66
2022-08-08T16:13:43.570Z,100136.75
2022-08-08T16:16:31.758Z,100136.94
2022-08-08T16:19:23.334Z,100129.69
2022-08-08T16:22:10.186Z,100130.84
2022-08-08T16:25:16.589Z,100125.50
2022-08-08T16:28:03.142Z,100123.19
2022-08-08T16:30:49.760Z,100122.97
2022-08-08T16:33:39.300Z,100126.44
2022-08-08T16:36:33.226Z,100134.63
2022-08-08T16:39:59.478Z,100133.59
2022-08-08T16:42:27.366Z,100133.19
2022-08-08T16:46:38.673Z,100133.16
2022-08-08T16:48:20.243Z,100131.75
2022-08-08T16:51:09.573Z,100128.81
2022-08-08T16:55:22.957Z,100136.81
2022-08-08T16:57:04.051Z,100140.22
2022-08-08T17:00:10.395Z,100137.03
2022-08-08T17:02:56.577Z,100137.34
2022-08-08T17:05:45.024Z,100143.94
2022-08-08T17:08:32.249Z,100149.75
2022-08-08T17:11:19.013Z,100149.72
2022-08-08T17:14:06.091Z,100157.34
2022-08-08T17:17:06.479Z,100160.13
2022-08-08T17:20:14.060Z,100165.19
2022-08-08T17:23:25.868Z,100161.31
2022-08-08T17:26:11.520Z,100179.72
2022-08-08T17:29:04.071Z,100183.03
2022-08-08T17:31:53.355Z,100174.97
2022-08-08T17:35:27.569Z,100184.72
2022-08-08T17:37:51.929Z,100178.59
2022-08-08T17:40:39.794Z,100177.72
2022-08-08T17:43:26.970Z,100179.75
2022-08-08T17:46:39.189Z,100179.87
2022-08-08T17:49:28.597Z,100181.72
2022-08-08T17:52:25.204Z,100173.00
2022-08-08T17:56:04.130Z,100179.06
2022-08-08T17:58:18.662Z,100173.19
2022-08-08T18:01:10.265Z,100176.09
2022-08-08T18:03:57.964Z,100178.06
2022-08-08T18:06:44.537Z,100172.53
2022-08-08T18:09:38.064Z,100168.31
2022-08-08T18:12:24.918Z,100186.56
2022-08-08T18:15:12.242Z,100189.47
2022-08-08T18:18:09.677Z,100203.97
2022-08-08T18:21:10.737Z,100195.72
2022-08-08T18:24:18.899Z,100196.84
2022-08-08T18:27:17.589Z,100196.37
2022-08-08T18:30:04.819Z,100198.25
2022-08-08T18:32:51.227Z,100207.75
2022-08-08T18:35:48.397Z,100204.44
2022-08-08T18:38:35.094Z,100204.19
2022-08-08T18:41:51.654Z,100213.78
2022-08-08T18:44:29.115Z,100208.03
2022-08-08T18:47:19.675Z,100214.53
2022-08-08T18:50:06.383Z,100215.84
2022-08-08T18:52:52.852Z,100216.34
2022-08-08T18:55:40.949Z,100208.97
2022-08-08T18:58:30.389Z,100212.66
2022-08-08T19:02:27.143Z,100206.94
2022-08-08T19:04:26.041Z,100218.00
2022-08-08T19:07:16.441Z,100216.31
2022-08-08T19:10:15.928Z,100217.31
2022-08-08T19:13:03.792Z,100230.16
2022-08-08T19:15:57.128Z,100222.97
2022-08-08T19:18:51.825Z,100227.25
2022-08-08T19:21:50.086Z,100235.06
2022-08-08T19:24:49.269Z,100233.00
2022-08-08T19:27:55.837Z,100223.37
2022-08-08T19:31:03.605Z,100228.44
2022-08-08T19:34:04.549Z,100232.12
2022-08-08T19:36:59.113Z,100235.12
2022-08-08T19:39:46.180Z,100228.75
2022-08-08T19:42:37.442Z,100238.72
2022-08-08T19:45:58.976Z,100226.25
2022-08-08T19:48:31.709Z,100243.00
2022-08-08T19:51:25.094Z,100237.00
2022-08-08T19:54:21.321Z,100237.47
2022-08-08T19:57:09.001Z,100238.94
2022-08-08T19:59:56.086Z,100234.91
2022-08-08T20:02:42.338Z,100229.16
2022-08-08T20:06:13.735Z,100236.75
2022-08-08T20:08:36.394Z,100233.06
2022-08-08T20:11:23.735Z,100230.41
2022-08-08T20:14:31.727Z,100226.47
2022-08-08T20:17:26.889Z,100221.28
2022-08-08T20:20:19.640Z,100212.84
2022-08-08T20:23:12.234Z,100207.91
2022-08-08T20:26:02.499Z,100219.44
2022-08-08T20:28:50.970Z,100220.22
2022-08-08T20:32:07.336Z,100212.84
2022-08-08T20:34:47.444Z,100220.13
2022-08-08T20:37:46.844Z,100216.84
2022-08-08T20:40:41.812Z,100222.50
2022-08-08T20:43:44.007Z,100222.41
2022-08-08T20:46:35.482Z,100208.31
2022-08-08T20:49:24.073Z,100215.66
2022-08-08T20:52:27.817Z,100218.88
2022-08-08T20:55:16.496Z,100207.94
2022-08-08T20:58:13.846Z,100208.41
2022-08-08T21:01:20.047Z,100196.25
2022-08-08T21:04:07.154Z,100210.37
2022-08-08T21:06:57.081Z,100207.69
2022-08-08T21:10:02.148Z,100207.25
2022-08-08T21:12:54.092Z,100215.19
2022-08-08T21:16:06.200Z,100217.16
2022-08-08T21:18:47.115Z,100207.34
2022-08-08T21:21:39.461Z,100216.94
2022-08-08T21:24:30.256Z,100216.16
2022-08-08T21:27:38.589Z,100224.31
2022-08-08T21:30:24.546Z,100234.13
2022-08-08T21:33:11.779Z,100237.37
2022-08-08T21:36:18.624Z,100238.16
2022-08-08T21:39:04.478Z,100239.69
2022-08-08T21:41:59.185Z,100248.00
2022-08-08T21:44:58.814Z,100241.13
2022-08-08T21:48:07.511Z,100238.66
2022-08-08T21:50:53.655Z,100240.66
2022-08-08T21:54:33.577Z,100243.59
2022-08-08T21:56:46.755Z,100248.97
2022-08-08T22:00:01.439Z,100245.00
2022-08-08T22:02:44.196Z,100246.44
2022-08-08T22:05:31.066Z,100255.84
2022-08-08T22:08:24.676Z,100254.75
2022-08-08T22:11:51.093Z,100247.50
2022-08-08T22:14:17.283Z,100256.34
2022-08-08T22:17:04.253Z,100262.59
2022-08-08T22:20:10.642Z,100258.53
2022-08-08T22:22:58.276Z,100263.16
2022-08-08T22:26:28.114Z,100250.28
2022-08-08T22:29:04.259Z,100254.91
2022-08-08T22:32:01.526Z,100246.56
2022-08-08T22:34:51.042Z,100237.37
2022-08-08T22:37:53.833Z,100244.37
2022-08-08T22:40:41.318Z,100244.28
2022-08-08T22:43:27.399Z,100234.59
2022-08-08T22:46:18.722Z,100231.66
2022-08-08T22:49:05.969Z,100230.06
2022-08-08T22:51:53.998Z,100228.56
2022-08-08T22:54:55.869Z,100223.03
2022-08-08T22:57:49.494Z,100229.88
2022-08-08T23:00:36.524Z,100239.47
2022-08-08T23:03:26.046Z,100242.59
2022-08-08T23:06:31.977Z,100233.87
2022-08-08T23:09:19.403Z,100239.16
2022-08-08T23:12:27.632Z,100245.56
2022-08-08T23:16:39.672Z,100235.62
2022-08-08T23:18:29.667Z,100236.53
2022-08-08T23:21:17.241Z,100237.59
2022-08-08T23:24:07.129Z,100236.44
2022-08-08T23:26:56.101Z,100236.34
2022-08-08T23:29:42.759Z,100234.16
2022-08-08T23:32:44.185Z,100238.28
2022-08-08T23:35:34.352Z,100238.84
2022-08-08T23:38:44.227Z,100245.19
2022-08-08T23:41:30.931Z,100252.50
2022-08-08T23:44:32.433Z,100256.91
2022-08-08T23:49:04.475Z,100247.97
2022-08-08T23:50:30.179Z,100264.53
2022-08-08T23:53:17.237Z,100272.97
2022-08-08T23:56:32.345Z,100259.31
2022-08-08T23:59:20.390Z,100272.53
